createdAt,value
2023-04-06T00:00:37.565Z,101765.47
2023-04-06T00:03:04.775Z,101754.59
2023-04-06T00:05:32.133Z,101764.84
2023-04-06T00:07:59.454Z,101764.78
2023-04-06T00:10:27.476Z,101761.88
2023-04-06T00:12:57.779Z,101759.13
2023-04-06T00:15:24.972Z,101760.81
2023-04-06T00:17:52.405Z,101754.53
2023-04-06T00:20:19.696Z,101749.22
2023-04-06T00:22:46.748Z,101750.81
2023-04-06T00:25:13.895Z,101757.91
2023-04-06T00:27:40.954Z,101758.69
2023-04-06T00:30:08.607Z,101750.66
2023-04-06T00:32:37.042Z,101748.09
2023-04-06T00:35:05.317Z,101741.06
2023-04-06T00:37:32.696Z,101740.22
2023-04-06T00:39:59.734Z,101738.28
2023-04-06T00:42:27.128Z,101733.03
2023-04-06T00:44:59.294Z,101729.94
2023-04-06T00:47:26.973Z,101724.81
2023-04-06T00:49:55.806Z,101718.47
2023-04-06T00:52:23.271Z,101715.28
2023-04-06T00:54:51.651Z,101709.09
2023-04-06T00:57:19.211Z,101714.13
2023-04-06T00:59:46.796Z,101714.75
2023-04-06T01:02:14.098Z,101705.72
2023-04-06T01:04:41.311Z,101702.09
2023-04-06T01:07:08.359Z,101703.41
2023-04-06T01:09:35.648Z,101690.06
2023-04-06T01:12:03.132Z,101695.09
2023-04-06T01:14:30.439Z,101685.72
2023-04-06T01:17:00.281Z,101693.88
2023-04-06T01:19:27.954Z,101694.75
2023-04-06T01:21:55.286Z,101688.75
2023-04-06T01:24:23.010Z,101692.19
2023-04-06T01:26:50.109Z,101686.28
2023-04-06T01:29:17.209Z,101684.41
2023-04-06T01:31:44.465Z,101677.53
2023-04-06T01:34:11.691Z,101670.56
2023-04-06T01:36:38.797Z,101676.09
2023-04-06T01:39:06.283Z,101673.53
2023-04-06T01:41:33.555Z,101670.91
2023-04-06T01:44:00.876Z,101661.38
2023-04-06T01:46:28.006Z,101666.56
2023-04-06T01:48:55.096Z,101666.50
2023-04-06T01:51:22.233Z,101657.03
2023-04-06T01:53:50.316Z,101659.59
2023-04-06T01:56:17.561Z,101658.72
2023-04-06T01:58:44.596Z,101659.59
2023-04-06T02:01:11.815Z,101648.47
2023-04-06T02:03:38.877Z,101655.19
2023-04-06T02:06:06.304Z,101625.69
2023-04-06T02:08:33.393Z,101641.66
2023-04-06T02:11:00.612Z,101635.69
2023-04-06T02:13:28.049Z,101636.56
2023-04-06T02:15:55.194Z,101625.16
2023-04-06T02:18:22.325Z,101627.09
2023-04-06T02:20:49.429Z,101631.69
2023-04-06T02:23:16.531Z,101614.22
2023-04-06T02:25:43.552Z,101621.47
2023-04-06T02:28:10.660Z,101624.28
2023-04-06T02:30:37.717Z,101614.56
2023-04-06T02:33:04.857Z,101617.47
2023-04-06T02:35:32.950Z,101621.66
2023-04-06T02:38:00.257Z,101620.22
2023-04-06T02:40:27.302Z,101620.38
2023-04-06T02:42:54.432Z,101600.97
2023-04-06T02:45:21.524Z,101616.16
2023-04-06T02:47:48.644Z,101614.66
2023-04-06T02:50:16.049Z,101603.44
2023-04-06T02:52:43.310Z,101609.78
2023-04-06T02:55:10.409Z,101601.31
2023-04-06T02:57:37.464Z,101594.44
2023-04-06T03:00:05.043Z,101594.69
2023-04-06T03:02:32.158Z,101596.47
2023-04-06T03:04:59.735Z,101592.47
2023-04-06T03:07:26.814Z,101592.47
2023-04-06T03:09:53.848Z,101586.38
2023-04-06T03:12:21.470Z,101593.34
2023-04-06T03:14:48.528Z,101581.78
2023-04-06T03:17:15.764Z,101578.41
2023-04-06T03:19:42.764Z,101585.22
2023-04-06T03:22:09.776Z,101580.38
2023-04-06T03:24:36.874Z,101582.03
2023-04-06T03:27:03.947Z,101572.84
2023-04-06T03:29:31.028Z,101573.72
2023-04-06T03:31:58.104Z,101580.44
2023-04-06T03:34:25.373Z,101578.88
2023-04-06T03:37:03.214Z,101566.06
2023-04-06T03:39:37.174Z,101561.72
2023-04-06T03:42:04.421Z,101559.31
2023-04-06T03:44:31.494Z,101559.22
2023-04-06T03:46:59.154Z,101561.00
2023-04-06T03:49:26.366Z,101560.28
2023-04-06T03:51:53.859Z,101546.34
2023-04-06T03:54:20.861Z,101549.06
2023-04-06T03:56:47.873Z,101548.13
2023-04-06T03:59:15.078Z,101546.41
2023-04-06T04:01:42.543Z,101554.03
2023-04-06T04:04:09.639Z,101533.72
2023-04-06T04:06:37.477Z,101545.09
2023-04-06T04:09:04.651Z,101554.75
2023-04-06T04:11:31.824Z,101543.59
2023-04-06T04:13:59.619Z,101542.66
2023-04-06T04:16:26.784Z,101548.47
2023-04-06T04:18:53.950Z,101547.59
2023-04-06T04:21:21.108Z,101535.06
2023-04-06T04:23:48.157Z,101545.66
2023-04-06T04:26:15.566Z,101538.19
2023-04-06T04:28:42.948Z,101545.47
2023-04-06T04:31:10.343Z,101540.19
2023-04-06T04:33:37.466Z,101541.59
2023-04-06T04:36:04.875Z,101547.06
2023-04-06T04:38:32.183Z,101550.53
2023-04-06T04:40:59.435Z,101537.47
2023-04-06T04:43:26.515Z,101541.59
2023-04-06T04:45:53.763Z,101541.88
2023-04-06T04:48:20.929Z,101551.22
2023-04-06T04:50:48.000Z,101555.66
2023-04-06T04:53:15.558Z,101542.03
2023-04-06T04:55:42.748Z,101539.31
2023-04-06T04:58:12.025Z,101537.63
2023-04-06T05:00:39.164Z,101546.47
2023-04-06T05:03:07.134Z,101547.06
2023-04-06T05:05:34.352Z,101534.97
2023-04-06T05:08:01.510Z,101530.91
2023-04-06T05:10:28.698Z,101534.53
2023-04-06T05:12:55.961Z,101536.38
2023-04-06T05:15:23.504Z,101537.28
2023-04-06T05:17:52.418Z,101536.63
2023-04-06T05:20:19.567Z,101540.88
2023-04-06T05:22:46.698Z,101539.53
2023-04-06T05:25:14.516Z,101533.69
2023-04-06T05:27:42.034Z,101539.72
2023-04-06T05:30:09.337Z,101539.16
2023-04-06T05:32:36.640Z,101536.94
2023-04-06T05:35:04.038Z,101538.00
2023-04-06T05:37:31.153Z,101540.63
2023-04-06T05:39:58.230Z,101533.72
2023-04-06T05:42:25.608Z,101533.25
2023-04-06T05:44:52.713Z,101531.94
2023-04-06T05:47:19.849Z,101532.91
2023-04-06T05:49:46.962Z,101526.03
2023-04-06T05:52:14.133Z,101525.38
2023-04-06T05:54:41.215Z,101523.78
2023-04-06T05:57:08.328Z,101523.38
2023-04-06T05:59:35.699Z,101523.84
2023-04-06T06:02:04.033Z,101523.13
2023-04-06T06:04:34.278Z,101520.72
2023-04-06T06:07:01.562Z,101509.16
2023-04-06T06:09:28.716Z,101516.94
2023-04-06T06:11:56.214Z,101514.69
2023-04-06T06:14:23.819Z,101512.91
2023-04-06T06:16:53.897Z,101512.41
2023-04-06T06:19:21.960Z,101514.25
2023-04-06T06:21:49.147Z,101505.84
2023-04-06T06:24:16.336Z,101516.03
2023-04-06T06:26:44.175Z,101505.06
2023-04-06T06:29:11.575Z,101507.41
2023-04-06T06:31:38.683Z,101514.38
2023-04-06T06:34:06.493Z,101501.31
2023-04-06T06:36:33.957Z,101517.81
2023-04-06T06:39:04.077Z,101516.44
2023-04-06T06:41:31.444Z,101514.97
2023-04-06T06:43:58.773Z,101504.63
2023-04-06T06:46:26.151Z,101513.03
2023-04-06T06:48:53.409Z,101510.69
2023-04-06T06:51:20.493Z,101508.53
2023-04-06T06:53:47.599Z,101507.34
2023-04-06T06:56:14.855Z,101517.97
2023-04-06T06:58:42.142Z,101511.38
2023-04-06T07:01:09.326Z,101507.69
2023-04-06T07:03:36.531Z,101504.63
2023-04-06T07:06:04.141Z,101511.22
2023-04-06T07:08:31.225Z,101510.19
2023-04-06T07:10:58.884Z,101507.06
2023-04-06T07:13:28.350Z,101516.69
2023-04-06T07:15:55.628Z,101509.84
2023-04-06T07:18:23.558Z,101500.78
2023-04-06T07:20:50.979Z,101505.19
2023-04-06T07:23:18.124Z,101503.41
2023-04-06T07:25:45.746Z,101506.94
2023-04-06T07:28:12.864Z,101490.28
2023-04-06T07:30:39.993Z,101502.44
2023-04-06T07:33:07.183Z,101497.25
2023-04-06T07:35:35.455Z,101493.72
2023-04-06T07:38:03.667Z,101497.38
2023-04-06T07:40:33.105Z,101498.13
2023-04-06T07:43:00.162Z,101493.78
2023-04-06T07:45:27.466Z,101496.56
2023-04-06T07:47:54.616Z,101484.38
2023-04-06T07:50:22.046Z,101493.56
2023-04-06T07:52:49.172Z,101494.53
2023-04-06T07:55:16.343Z,101480.97
2023-04-06T07:57:43.459Z,101489.78
2023-04-06T08:00:11.474Z,101486.66
2023-04-06T08:02:38.775Z,101486.00
2023-04-06T08:05:06.915Z,101486.19
2023-04-06T08:07:34.098Z,101482.25
2023-04-06T08:10:01.139Z,101497.34
2023-04-06T08:12:28.216Z,101494.34
2023-04-06T08:14:55.399Z,101502.16
2023-04-06T08:17:23.153Z,101497.38
2023-04-06T08:19:50.443Z,101495.88
2023-04-06T08:22:17.517Z,101493.66
2023-04-06T08:24:44.664Z,101494.66
2023-04-06T08:27:11.809Z,101499.06
2023-04-06T08:29:38.897Z,101492.41
2023-04-06T08:32:07.186Z,101492.41
2023-04-06T08:34:34.822Z,101495.44
2023-04-06T08:37:02.676Z,101488.59
2023-04-06T08:39:32.083Z,101476.34
2023-04-06T08:42:00.897Z,101486.06
2023-04-06T08:44:28.433Z,101489.69
2023-04-06T08:46:56.634Z,101488.84
2023-04-06T08:49:24.170Z,101473.53
2023-04-06T08:51:51.964Z,101479.72
2023-04-06T08:54:19.177Z,101457.97
2023-04-06T08:56:46.954Z,101474.03
2023-04-06T08:59:14.212Z,101481.94
2023-04-06T09:01:43.716Z,101476.22
2023-04-06T09:04:13.072Z,101485.19
2023-04-06T09:06:41.664Z,101477.38
2023-04-06T09:09:09.560Z,101494.50
2023-04-06T09:11:51.508Z,101501.56
2023-04-06T09:14:35.000Z,101493.16
2023-04-06T09:17:04.234Z,101492.22
2023-04-06T09:19:31.789Z,101491.75
2023-04-06T09:22:08.363Z,101487.91
2023-04-06T09:24:48.684Z,101491.78
2023-04-06T09:27:16.430Z,101486.00
2023-04-06T09:29:44.622Z,101493.97
2023-04-06T09:32:12.818Z,101494.84
2023-04-06T09:34:40.245Z,101484.63
2023-04-06T09:37:17.654Z,101481.94
2023-04-06T09:39:46.280Z,101486.16
2023-04-06T09:42:33.978Z,101485.50
2023-04-06T09:45:01.833Z,101485.34
2023-04-06T09:47:31.909Z,101479.00
2023-04-06T09:50:00.942Z,101487.88
2023-04-06T09:52:33.825Z,101485.41
2023-04-06T09:55:05.196Z,101484.66
2023-04-06T09:57:50.943Z,101493.50
2023-04-06T10:00:23.373Z,101484.97
2023-04-06T10:03:07.817Z,101485.09
2023-04-06T10:06:03.974Z,101480.44
2023-04-06T10:08:33.599Z,101485.44
2023-04-06T10:11:02.268Z,101485.84
2023-04-06T10:13:29.862Z,101473.72
2023-04-06T10:15:58.327Z,101477.97
2023-04-06T10:18:26.042Z,101487.34
2023-04-06T10:20:57.231Z,101476.13
2023-04-06T10:23:42.369Z,101477.03
2023-04-06T10:26:15.625Z,101494.06
2023-04-06T10:28:44.170Z,101471.03
2023-04-06T10:31:11.550Z,101489.53
2023-04-06T10:33:38.917Z,101477.44
2023-04-06T10:36:16.623Z,101486.66
2023-04-06T10:38:43.748Z,101473.41
2023-04-06T10:41:12.661Z,101483.34
2023-04-06T10:43:41.941Z,101467.75
2023-04-06T10:46:10.538Z,101477.31
2023-04-06T10:48:41.672Z,101481.69
2023-04-06T10:51:16.588Z,101473.56
2023-04-06T10:53:48.506Z,101482.31
2023-04-06T10:56:17.289Z,101472.50
2023-04-06T10:58:57.293Z,101469.72
2023-04-06T11:01:27.709Z,101474.81
2023-04-06T11:04:00.514Z,101470.19
2023-04-06T11:06:30.326Z,101476.09
2023-04-06T11:09:06.674Z,101466.47
2023-04-06T11:11:33.900Z,101463.97
2023-04-06T11:14:02.309Z,101468.38
2023-04-06T11:16:32.262Z,101467.56
2023-04-06T11:19:05.060Z,101469.00
2023-04-06T11:21:40.967Z,101471.09
2023-04-06T11:24:12.475Z,101459.72
2023-04-06T11:27:20.366Z,101459.47
2023-04-06T11:29:39.067Z,101446.34
2023-04-06T11:32:07.366Z,101461.16
2023-04-06T11:34:37.948Z,101451.63
2023-04-06T11:37:09.196Z,101438.94
2023-04-06T11:39:49.201Z,101435.84
2023-04-06T11:42:23.465Z,101443.97
2023-04-06T11:44:53.697Z,101444.28
2023-04-06T11:47:21.765Z,101438.13
2023-04-06T11:49:49.084Z,101437.00
2023-04-06T11:52:20.426Z,101436.88
2023-04-06T11:54:49.298Z,101423.31
2023-04-06T11:57:17.702Z,101419.66
2023-04-06T11:59:45.301Z,101437.63
2023-04-06T12:02:12.504Z,101430.13
2023-04-06T12:04:40.048Z,101418.97
2023-04-06T12:07:07.333Z,101423.34
2023-04-06T12:09:37.012Z,101423.38
2023-04-06T12:12:04.925Z,101411.38
2023-04-06T12:14:32.055Z,101414.94
2023-04-06T12:16:59.605Z,101416.09
2023-04-06T12:19:27.019Z,101427.78
2023-04-06T12:21:58.544Z,101415.19
2023-04-06T12:24:25.898Z,101412.44
2023-04-06T12:27:02.659Z,101410.41
2023-04-06T12:29:30.394Z,101422.41
2023-04-06T12:31:57.627Z,101405.97
2023-04-06T12:34:24.749Z,101413.91
2023-04-06T12:36:52.112Z,101399.66
2023-04-06T12:39:21.291Z,101406.25
2023-04-06T12:41:48.960Z,101403.50
2023-04-06T12:44:16.380Z,101397.00
2023-04-06T12:46:44.447Z,101397.84
2023-04-06T12:49:12.210Z,101394.19
2023-04-06T12:51:39.382Z,101391.84
2023-04-06T12:54:07.022Z,101390.03
2023-04-06T12:56:34.071Z,101396.91
2023-04-06T12:59:01.385Z,101394.72
2023-04-06T13:01:29.044Z,101391.00
2023-04-06T13:03:57.447Z,101390.09
2023-04-06T13:06:28.336Z,101387.44
2023-04-06T13:08:56.289Z,101384.81
2023-04-06T13:11:26.935Z,101366.72
2023-04-06T13:13:54.345Z,101383.63
2023-04-06T13:16:22.143Z,101372.59
2023-04-06T13:18:49.342Z,101374.28
2023-04-06T13:21:17.632Z,101375.97
2023-04-06T13:23:45.120Z,101371.69
2023-04-06T13:26:14.293Z,101375.19
2023-04-06T13:28:42.271Z,101360.47
2023-04-06T13:31:10.778Z,101361.19
2023-04-06T13:33:38.149Z,101372.13
2023-04-06T13:36:07.472Z,101352.22
2023-04-06T13:38:34.935Z,101355.66
2023-04-06T13:41:02.544Z,101358.97
2023-04-06T13:43:29.638Z,101352.81
2023-04-06T13:45:57.103Z,101349.31
2023-04-06T13:49:00.805Z,101353.53
2023-04-06T13:51:28.006Z,101355.16
2023-04-06T13:53:56.029Z,101349.97
2023-04-06T13:56:23.659Z,101342.06
2023-04-06T13:58:50.902Z,101351.53
2023-04-06T14:01:18.289Z,101344.53
2023-04-06T14:03:48.477Z,101339.38
2023-04-06T14:06:29.825Z,101346.22
2023-04-06T14:08:59.305Z,101327.28
2023-04-06T14:11:27.235Z,101337.66
2023-04-06T14:13:56.494Z,101336.50
2023-04-06T14:16:25.556Z,101323.69
2023-04-06T14:18:53.319Z,101334.75
2023-04-06T14:21:20.958Z,101323.53
2023-04-06T14:23:48.193Z,101327.81
2023-04-06T14:26:16.161Z,101328.72
2023-04-06T14:28:43.534Z,101327.81
2023-04-06T14:31:13.139Z,101328.69
2023-04-06T14:33:40.956Z,101325.84
2023-04-06T14:36:09.036Z,101321.69
2023-04-06T14:38:36.659Z,101319.88
2023-04-06T14:41:03.882Z,101313.81
2023-04-06T14:43:31.117Z,101327.53
2023-04-06T14:46:02.710Z,101330.97
2023-04-06T14:48:29.905Z,101311.69
2023-04-06T14:50:57.555Z,101316.22
2023-04-06T14:53:25.560Z,101319.72
2023-04-06T14:55:53.704Z,101310.09
2023-04-06T14:58:22.117Z,101305.09
2023-04-06T15:00:49.699Z,101316.28
2023-04-06T15:03:17.207Z,101303.09
2023-04-06T15:05:44.850Z,101305.75
2023-04-06T15:08:12.634Z,101301.41
2023-04-06T15:10:39.768Z,101299.78
2023-04-06T15:13:06.941Z,101303.16
2023-04-06T15:15:34.084Z,101297.78
2023-04-06T15:18:03.633Z,101294.38
2023-04-06T15:20:31.948Z,101298.84
2023-04-06T15:22:59.125Z,101281.63
2023-04-06T15:25:26.263Z,101286.19
2023-04-06T15:27:54.605Z,101287.25
2023-04-06T15:30:22.201Z,101286.25
2023-04-06T15:33:02.119Z,101283.84
2023-04-06T15:35:29.796Z,101265.41
2023-04-06T15:37:57.990Z,101269.97
2023-04-06T15:40:25.464Z,101269.97
2023-04-06T15:42:52.802Z,101275.22
2023-04-06T15:45:19.975Z,101269.28
2023-04-06T15:47:47.053Z,101259.91
2023-04-06T15:50:14.408Z,101265.91
2023-04-06T15:52:41.640Z,101265.84
2023-04-06T15:55:09.190Z,101264.91
2023-04-06T15:57:36.478Z,101260.47
2023-04-06T16:00:07.431Z,101254.38
2023-04-06T16:02:35.192Z,101254.53
2023-04-06T16:05:04.059Z,101259.38
2023-04-06T16:07:33.753Z,101249.25
2023-04-06T16:10:01.429Z,101262.03
2023-04-06T16:12:29.106Z,101259.94
2023-04-06T16:14:56.460Z,101259.84
2023-04-06T16:17:25.910Z,101257.88
2023-04-06T16:19:56.212Z,101255.88
2023-04-06T16:22:24.580Z,101253.00
2023-04-06T16:24:51.668Z,101248.84
2023-04-06T16:27:18.733Z,101244.69
2023-04-06T16:29:46.370Z,101234.03
2023-04-06T16:32:13.501Z,101246.88
2023-04-06T16:34:40.566Z,101245.94
2023-04-06T16:37:07.742Z,101237.47
2023-04-06T16:39:35.380Z,101245.25
2023-04-06T16:42:24.662Z,101246.06
2023-04-06T16:44:52.515Z,101246.00
2023-04-06T16:47:19.582Z,101232.44
2023-04-06T16:49:46.674Z,101241.78
2023-04-06T16:52:13.760Z,101232.97
2023-04-06T16:54:41.093Z,101229.16
2023-04-06T16:57:08.243Z,101225.13
2023-04-06T16:59:36.175Z,101226.91
2023-04-06T17:02:03.925Z,101225.31
2023-04-06T17:04:31.090Z,101232.44
2023-04-06T17:06:58.278Z,101224.50
2023-04-06T17:09:25.516Z,101228.09
2023-04-06T17:11:52.614Z,101236.00
2023-04-06T17:14:19.644Z,101228.44
2023-04-06T17:16:46.960Z,101231.16
2023-04-06T17:19:14.183Z,101231.22
2023-04-06T17:21:44.394Z,101234.69
2023-04-06T17:24:12.002Z,101231.94
2023-04-06T17:26:40.454Z,101233.78
2023-04-06T17:29:07.671Z,101239.72
2023-04-06T17:31:35.241Z,101239.59
2023-04-06T17:34:03.000Z,101234.88
2023-04-06T17:36:30.253Z,101228.47
2023-04-06T17:38:57.339Z,101239.31
2023-04-06T17:41:24.428Z,101236.09
2023-04-06T17:43:52.012Z,101235.00
2023-04-06T17:46:21.341Z,101229.69
2023-04-06T17:48:48.831Z,101245.44
2023-04-06T17:51:18.879Z,101239.44
2023-04-06T17:53:46.652Z,101241.03
2023-04-06T17:56:13.738Z,101239.28
2023-04-06T17:58:41.122Z,101236.56
2023-04-06T18:01:11.159Z,101236.84
2023-04-06T18:03:38.759Z,101239.38
2023-04-06T18:06:16.132Z,101231.50
2023-04-06T18:08:43.503Z,101230.66
2023-04-06T18:11:18.553Z,101226.94
2023-04-06T18:13:45.616Z,101246.13
2023-04-06T18:16:12.781Z,101235.09
2023-04-06T18:18:40.066Z,101233.28
2023-04-06T18:21:07.589Z,101238.31
2023-04-06T18:23:36.379Z,101231.50
2023-04-06T18:26:05.192Z,101238.31
2023-04-06T18:28:33.113Z,101230.44
2023-04-06T18:31:00.619Z,101237.34
2023-04-06T18:33:27.780Z,101232.09
2023-04-06T18:35:56.675Z,101237.47
2023-04-06T18:38:24.009Z,101227.84
2023-04-06T18:40:52.919Z,101242.66
2023-04-06T18:43:20.112Z,101242.84
2023-04-06T18:45:47.672Z,101251.38
2023-04-06T18:48:14.764Z,101249.63
2023-04-06T18:50:52.392Z,101240.97
2023-04-06T18:53:19.477Z,101250.47
2023-04-06T18:55:46.790Z,101240.16
2023-04-06T18:58:13.881Z,101250.53
2023-04-06T19:00:41.893Z,101247.94
2023-04-06T19:03:09.231Z,101247.03
2023-04-06T19:05:36.588Z,101247.22
2023-04-06T19:08:05.216Z,101245.53
2023-04-06T19:10:34.295Z,101252.69
2023-04-06T19:13:01.420Z,101249.97
2023-04-06T19:15:28.487Z,101248.19
2023-04-06T19:17:55.675Z,101243.22
2023-04-06T19:20:22.894Z,101244.81
2023-04-06T19:22:50.765Z,101250.94
2023-04-06T19:25:18.661Z,101238.69
2023-04-06T19:27:45.948Z,101256.88
2023-04-06T19:30:13.055Z,101257.81
2023-04-06T19:32:41.212Z,101256.91
2023-04-06T19:35:08.824Z,101263.88
2023-04-06T19:37:37.804Z,101262.16
2023-04-06T19:40:10.755Z,101263.94
2023-04-06T19:42:38.752Z,101269.81
2023-04-06T19:45:06.757Z,101266.41
2023-04-06T19:47:35.511Z,101265.53
2023-04-06T19:50:04.607Z,101267.31
2023-04-06T19:52:32.901Z,101248.09
2023-04-06T19:55:00.374Z,101265.63
2023-04-06T19:57:27.967Z,101265.63
2023-04-06T19:59:58.240Z,101269.31
2023-04-06T20:02:25.545Z,101267.84
2023-04-06T20:04:53.031Z,101264.31
2023-04-06T20:07:20.143Z,101263.38
2023-04-06T20:09:47.200Z,101267.06
2023-04-06T20:12:14.282Z,101264.66
2023-04-06T20:14:41.361Z,101250.53
2023-04-06T20:17:08.598Z,101255.66
2023-04-06T20:19:36.349Z,101264.53
2023-04-06T20:22:06.571Z,101266.25
2023-04-06T20:24:33.660Z,101258.28
2023-04-06T20:27:01.512Z,101254.88
2023-04-06T20:29:29.458Z,101266.25
2023-04-06T20:31:58.230Z,101264.66
2023-04-06T20:34:28.771Z,101266.63
2023-04-06T20:36:56.599Z,101265.63
2023-04-06T20:39:24.241Z,101265.72
2023-04-06T20:41:52.908Z,101261.25
2023-04-06T20:44:21.345Z,101270.06
2023-04-06T20:46:49.114Z,101260.41
2023-04-06T20:49:16.938Z,101277.00
2023-04-06T20:51:45.505Z,101277.84
2023-04-06T20:54:12.582Z,101262.13
2023-04-06T20:56:39.696Z,101264.94
2023-04-06T20:59:06.814Z,101271.94
2023-04-06T21:01:34.004Z,101263.28
2023-04-06T21:04:04.158Z,101260.00
2023-04-06T21:06:32.434Z,101274.06
2023-04-06T21:09:00.844Z,101272.47
2023-04-06T21:11:27.899Z,101270.53
2023-04-06T21:13:54.931Z,101268.63
2023-04-06T21:16:22.276Z,101271.06
2023-04-06T21:18:49.448Z,101265.88
2023-04-06T21:21:16.608Z,101268.56
2023-04-06T21:23:43.741Z,101271.97
2023-04-06T21:26:13.705Z,101272.63
2023-04-06T21:28:40.832Z,101251.91
2023-04-06T21:31:11.033Z,101265.09
2023-04-06T21:33:38.340Z,101266.84
2023-04-06T21:36:06.788Z,101256.63
2023-04-06T21:38:37.640Z,101268.97
2023-04-06T21:41:05.362Z,101264.63
2023-04-06T21:43:32.470Z,101270.88
2023-04-06T21:45:59.666Z,101277.75
2023-04-06T21:48:26.817Z,101281.47
2023-04-06T21:50:54.269Z,101281.47
2023-04-06T21:53:21.412Z,101279.88
2023-04-06T21:55:48.906Z,101279.94
2023-04-06T21:58:16.093Z,101281.59
2023-04-06T22:00:43.285Z,101281.63
2023-04-06T22:03:10.500Z,101265.97
2023-04-06T22:05:38.404Z,101291.13
2023-04-06T22:08:06.394Z,101276.41
2023-04-06T22:10:33.520Z,101284.13
2023-04-06T22:13:00.596Z,101285.13
2023-04-06T22:15:27.714Z,101275.50
2023-04-06T22:17:55.028Z,101285.13
2023-04-06T22:20:22.271Z,101290.63
2023-04-06T22:22:50.155Z,101282.91
2023-04-06T22:25:17.265Z,101268.06
2023-04-06T22:27:44.403Z,101283.06
2023-04-06T22:30:11.803Z,101289.00
2023-04-06T22:32:38.939Z,101287.31
2023-04-06T22:35:06.974Z,101283.84
2023-04-06T22:37:34.138Z,101287.38
2023-04-06T22:40:01.611Z,101288.28
2023-04-06T22:42:29.001Z,101290.78
2023-04-06T22:44:56.119Z,101295.13
2023-04-06T22:47:23.375Z,101287.41
2023-04-06T22:49:50.653Z,101296.84
2023-04-06T22:52:17.806Z,101294.34
2023-04-06T22:54:45.255Z,101287.38
2023-04-06T22:57:12.282Z,101298.59
2023-04-06T22:59:39.420Z,101293.59
2023-04-06T23:02:07.338Z,101297.81
2023-04-06T23:04:34.588Z,101297.63
2023-04-06T23:07:02.531Z,101285.41
2023-04-06T23:09:29.556Z,101288.13
2023-04-06T23:11:56.595Z,101289.50
2023-04-06T23:14:23.807Z,101292.41
2023-04-06T23:16:51.172Z,101294.13
2023-04-06T23:19:18.322Z,101287.22
2023-04-06T23:21:45.774Z,101302.13
2023-04-06T23:24:12.952Z,101300.00
2023-04-06T23:26:40.390Z,101294.69
2023-04-06T23:29:07.482Z,101305.84
2023-04-06T23:31:34.598Z,101311.00
2023-04-06T23:34:02.648Z,101314.41
2023-04-06T23:36:30.007Z,101317.91
2023-04-06T23:38:57.526Z,101316.94
2023-04-06T23:41:24.611Z,101309.25
2023-04-06T23:43:52.051Z,101320.19
2023-04-06T23:46:19.161Z,101323.72
2023-04-06T23:48:46.288Z,101329.75
2023-04-06T23:51:13.663Z,101327.94
2023-04-06T23:53:41.298Z,101329.47
2023-04-06T23:56:09.249Z,101333.00
2023-04-06T23:58:36.618Z,101341.69
